イースター島 の空港の天気 - METARとTAF

マタベリ国際空港 ( SCIP / IPC ) - チリ イースター島
飛行場実況気象(Metar)
観測時間05/30 20:00 EAT (05/31 02:00 UTC)
風向・風速東 2m/s
視程10km以上
天気現象
全天の8割程度の雲 雲底高度 850m
気温17℃
湿度83%
気圧1027hPa
METARSCIP 310200Z 08003KT 9999 BKN028 17/14 Q1027 NOSIG
過去の天気等 Google飛行場航空写真 Wunderground天気予報

過去48時間のMETAR

飛行場予報(TAF)
発表時間: 5/30 16:21 EAT (5/30 22:21 UTC)
予報対象時間: 30日18時 EAT ~ 31日18時 EAT
風向・風速東北東 3m/s
視程10km以上
全天の4割程度の雲 雲底高度 760m
全天の4割程度の雲 雲底高度 1220m
31日0時 EAT ~ 31日6時 EAT に一時的に
風向・風速不定 2m/s
視程7000m
天気現象弱いしゅう雨
全天の4割程度の雲 雲底高度 460m
全天の8割程度の雲 雲底高度 910m
31日8時 EAT ~ 31日10時 EAT に徐々に
風向・風速東 5m/s
31日13時 EAT ~ 31日18時 EAT に一時的に
視程7000m
天気現象弱いしゅう雨
全天の4割程度の雲 雲底高度 460m
全天の8割程度の雲 雲底高度 910m
TAF SCIP 302221Z 3100/0100 06005KT 9999 SCT025 SCT040 TX24/3120Z TN15/3110Z
TEMPO 3106/3112 VRB03KT 7000 -SHRA SCT015 BKN030
BECMG 3114/3116 08010KT
TEMPO 3119/0100 7000 -SHRA SCT015 BKN030